sensor_id;sensor_type;location;lat;lon;timestamp;P1;durP1;ratioP1;P2;durP2;ratioP2
75858;SDS011;64504;51.308;8.620;2023-05-10T00:01:03;2.53;;;2.33;;
75858;SDS011;64504;51.308;8.620;2023-05-10T00:03:28;7.13;;;3.10;;
75858;SDS011;64504;51.308;8.620;2023-05-10T00:05:54;4.55;;;3.40;;
75858;SDS011;64504;51.308;8.620;2023-05-10T00:08:20;4.28;;;3.85;;
75858;SDS011;64504;51.308;8.620;2023-05-10T00:10:45;4.60;;;3.28;;
75858;SDS011;64504;51.308;8.620;2023-05-10T00:13:11;3.30;;;3.00;;
75858;SDS011;64504;51.308;8.620;2023-05-10T00:15:36;4.90;;;2.72;;
75858;SDS011;64504;51.308;8.620;2023-05-10T00:18:03;10.65;;;3.33;;
75858;SDS011;64504;51.308;8.620;2023-05-10T00:20:28;3.97;;;3.50;;
75858;SDS011;64504;51.308;8.620;2023-05-10T00:22:54;3.25;;;2.97;;
75858;SDS011;64504;51.308;8.620;2023-05-10T00:25:19;2.60;;;2.40;;
75858;SDS011;64504;51.308;8.620;2023-05-10T00:27:46;4.10;;;3.08;;
75858;SDS011;64504;51.308;8.620;2023-05-10T00:30:12;4.00;;;2.63;;
75858;SDS011;64504;51.308;8.620;2023-05-10T00:32:38;3.33;;;3.03;;
75858;SDS011;64504;51.308;8.620;2023-05-10T00:35:03;2.58;;;2.35;;
75858;SDS011;64504;51.308;8.620;2023-05-10T00:37:29;1.95;;;1.70;;
75858;SDS011;64504;51.308;8.620;2023-05-10T00:39:54;2.97;;;2.78;;
75858;SDS011;64504;51.308;8.620;2023-05-10T00:42:20;4.53;;;3.88;;
75858;SDS011;64504;51.308;8.620;2023-05-10T00:44:45;3.92;;;3.58;;
75858;SDS011;64504;51.308;8.620;2023-05-10T00:47:11;6.10;;;3.15;;
75858;SDS011;64504;51.308;8.620;2023-05-10T00:49:37;3.42;;;2.85;;
75858;SDS011;64504;51.308;8.620;2023-05-10T00:52:02;3.33;;;2.42;;
75858;SDS011;64504;51.308;8.620;2023-05-10T00:54:28;3.72;;;2.85;;
75858;SDS011;64504;51.308;8.620;2023-05-10T00:56:54;4.10;;;2.47;;
75858;SDS011;64504;51.308;8.620;2023-05-10T00:59:20;2.42;;;2.17;;
75858;SDS011;64504;51.308;8.620;2023-05-10T01:01:45;2.80;;;2.60;;
75858;SDS011;64504;51.308;8.620;2023-05-10T01:04:11;2.72;;;2.20;;
75858;SDS011;64504;51.308;8.620;2023-05-10T01:06:38;1.42;;;1.33;;
75858;SDS011;64504;51.308;8.620;2023-05-10T01:09:05;2.53;;;1.80;;
75858;SDS011;64504;51.308;8.620;2023-05-10T01:11:32;5.15;;;1.85;;
75858;SDS011;64504;51.308;8.620;2023-05-10T01:13:59;0.60;;;0.60;;
75858;SDS011;64504;51.308;8.620;2023-05-10T01:16:25;0.43;;;0.43;;
75858;SDS011;64504;51.308;8.620;2023-05-10T01:18:52;0.65;;;0.50;;
75858;SDS011;64504;51.308;8.620;2023-05-10T01:21:30;0.70;;;0.52;;
75858;SDS011;64504;51.308;8.620;2023-05-10T01:32:52;0.10;;;0.10;;
75858;SDS011;64504;51.308;8.620;2023-05-10T01:40:53;0.30;;;0.30;;
75858;SDS011;64504;51.308;8.620;2023-05-10T01:46:36;0.10;;;0.10;;
75858;SDS011;64504;51.308;8.620;2023-05-10T01:49:03;1.02;;;0.90;;
75858;SDS011;64504;51.308;8.620;2023-05-10T01:51:41;0.17;;;0.17;;
75858;SDS011;64504;51.308;8.620;2023-05-10T01:54:13;0.30;;;0.30;;
75858;SDS011;64504;51.308;8.620;2023-05-10T01:56:39;0.20;;;0.20;;
75858;SDS011;64504;51.308;8.620;2023-05-10T01:59:07;0.10;;;0.10;;
75858;SDS011;64504;51.308;8.620;2023-05-10T02:01:39;0.30;;;0.30;;
75858;SDS011;64504;51.308;8.620;2023-05-10T02:04:06;0.40;;;0.40;;
75858;SDS011;64504;51.308;8.620;2023-05-10T02:06:32;0.30;;;0.30;;
75858;SDS011;64504;51.308;8.620;2023-05-10T02:08:58;0.85;;;0.40;;
75858;SDS011;64504;51.308;8.620;2023-05-10T02:11:25;0.20;;;0.20;;
75858;SDS011;64504;51.308;8.620;2023-05-10T02:13:52;0.65;;;0.38;;
75858;SDS011;64504;51.308;8.620;2023-05-10T02:16:18;0.10;;;0.10;;
75858;SDS011;64504;51.308;8.620;2023-05-10T02:18:50;0.10;;;0.10;;
75858;SDS011;64504;51.308;8.620;2023-05-10T02:21:17;0.22;;;0.22;;
75858;SDS011;64504;51.308;8.620;2023-05-10T02:23:43;0.20;;;0.20;;
75858;SDS011;64504;51.308;8.620;2023-05-10T02:26:08;0.20;;;0.20;;
75858;SDS011;64504;51.308;8.620;2023-05-10T02:28:36;0.20;;;0.20;;
75858;SDS011;64504;51.308;8.620;2023-05-10T02:31:02;0.10;;;0.10;;
75858;SDS011;64504;51.308;8.620;2023-05-10T02:33:28;0.20;;;0.20;;
75858;SDS011;64504;51.308;8.620;2023-05-10T02:35:54;0.20;;;0.20;;
75858;SDS011;64504;51.308;8.620;2023-05-10T02:38:21;0.10;;;0.10;;
75858;SDS011;64504;51.308;8.620;2023-05-10T02:40:49;0.10;;;0.10;;
75858;SDS011;64504;51.308;8.620;2023-05-10T02:43:15;0.10;;;0.10;;
75858;SDS011;64504;51.308;8.620;2023-05-10T02:45:43;0.20;;;0.20;;
75858;SDS011;64504;51.308;8.620;2023-05-10T02:48:12;0.17;;;0.17;;
75858;SDS011;64504;51.308;8.620;2023-05-10T02:50:37;0.20;;;0.20;;
75858;SDS011;64504;51.308;8.620;2023-05-10T02:53:15;0.10;;;0.10;;
75858;SDS011;64504;51.308;8.620;2023-05-10T02:55:43;0.40;;;0.40;;
75858;SDS011;64504;51.308;8.620;2023-05-10T02:58:11;0.28;;;0.28;;
75858;SDS011;64504;51.308;8.620;2023-05-10T03:00:37;0.20;;;0.20;;
75858;SDS011;64504;51.308;8.620;2023-05-10T03:03:02;0.30;;;0.30;;
75858;SDS011;64504;51.308;8.620;2023-05-10T03:05:28;0.20;;;0.20;;
75858;SDS011;64504;51.308;8.620;2023-05-10T03:07:53;0.17;;;0.17;;
75858;SDS011;64504;51.308;8.620;2023-05-10T03:10:24;0.10;;;0.10;;
75858;SDS011;64504;51.308;8.620;2023-05-10T03:18:32;0.10;;;0.10;;
75858;SDS011;64504;51.308;8.620;2023-05-10T03:21:06;0.20;;;0.20;;
75858;SDS011;64504;51.308;8.620;2023-05-10T03:26:05;2.95;;;0.35;;
75858;SDS011;64504;51.308;8.620;2023-05-10T03:28:33;0.20;;;0.20;;
75858;SDS011;64504;51.308;8.620;2023-05-10T03:30:59;0.20;;;0.20;;
75858;SDS011;64504;51.308;8.620;2023-05-10T03:33:25;0.30;;;0.30;;
75858;SDS011;64504;51.308;8.620;2023-05-10T03:35:51;0.20;;;0.20;;
75858;SDS011;64504;51.308;8.620;2023-05-10T03:38:16;0.20;;;0.20;;
75858;SDS011;64504;51.308;8.620;2023-05-10T03:40:42;0.35;;;0.30;;
75858;SDS011;64504;51.308;8.620;2023-05-10T03:43:07;0.28;;;0.28;;
75858;SDS011;64504;51.308;8.620;2023-05-10T03:45:33;0.40;;;0.40;;
75858;SDS011;64504;51.308;8.620;2023-05-10T03:47:59;0.43;;;0.43;;
75858;SDS011;64504;51.308;8.620;2023-05-10T03:50:24;0.47;;;0.47;;
75858;SDS011;64504;51.308;8.620;2023-05-10T03:52:53;0.38;;;0.38;;
75858;SDS011;64504;51.308;8.620;2023-05-10T03:55:18;1.05;;;0.85;;
75858;SDS011;64504;51.308;8.620;2023-05-10T03:57:44;1.02;;;0.50;;
75858;SDS011;64504;51.308;8.620;2023-05-10T04:00:10;0.47;;;0.47;;
75858;SDS011;64504;51.308;8.620;2023-05-10T04:02:36;0.57;;;0.40;;
75858;SDS011;64504;51.308;8.620;2023-05-10T04:05:02;0.50;;;0.50;;
75858;SDS011;64504;51.308;8.620;2023-05-10T04:07:28;0.77;;;0.75;;
75858;SDS011;64504;51.308;8.620;2023-05-10T04:09:54;0.80;;;0.80;;
75858;SDS011;64504;51.308;8.620;2023-05-10T04:12:19;2.17;;;1.05;;
75858;SDS011;64504;51.308;8.620;2023-05-10T04:14:47;0.40;;;0.40;;
75858;SDS011;64504;51.308;8.620;2023-05-10T04:17:12;2.22;;;0.90;;
75858;SDS011;64504;51.308;8.620;2023-05-10T04:19:39;1.15;;;1.05;;
75858;SDS011;64504;51.308;8.620;2023-05-10T04:22:04;0.80;;;0.80;;
75858;SDS011;64504;51.308;8.620;2023-05-10T04:24:30;0.80;;;0.80;;
75858;SDS011;64504;51.308;8.620;2023-05-10T04:26:55;0.80;;;0.80;;
75858;SDS011;64504;51.308;8.620;2023-05-10T04:29:20;3.50;;;1.02;;
75858;SDS011;64504;51.308;8.620;2023-05-10T04:31:46;0.80;;;0.80;;
75858;SDS011;64504;51.308;8.620;2023-05-10T04:34:12;1.05;;;1.00;;
75858;SDS011;64504;51.308;8.620;2023-05-10T04:36:37;0.80;;;0.80;;
75858;SDS011;64504;51.308;8.620;2023-05-10T04:39:03;1.95;;;0.98;;
75858;SDS011;64504;51.308;8.620;2023-05-10T04:41:29;1.48;;;0.88;;
75858;SDS011;64504;51.308;8.620;2023-05-10T04:43:55;1.35;;;1.25;;
75858;SDS011;64504;51.308;8.620;2023-05-10T04:46:20;1.20;;;1.10;;
75858;SDS011;64504;51.308;8.620;2023-05-10T04:48:46;0.75;;;0.75;;
75858;SDS011;64504;51.308;8.620;2023-05-10T04:51:11;1.38;;;1.27;;
75858;SDS011;64504;51.308;8.620;2023-05-10T04:53:37;1.38;;;1.27;;
75858;SDS011;64504;51.308;8.620;2023-05-10T04:56:03;0.77;;;0.77;;
75858;SDS011;64504;51.308;8.620;2023-05-10T04:58:30;1.50;;;1.40;;
75858;SDS011;64504;51.308;8.620;2023-05-10T05:00:55;2.20;;;1.30;;
75858;SDS011;64504;51.308;8.620;2023-05-10T05:03:21;1.35;;;1.25;;
75858;SDS011;64504;51.308;8.620;2023-05-10T05:05:47;1.67;;;1.58;;
75858;SDS011;64504;51.308;8.620;2023-05-10T05:08:12;1.27;;;1.15;;
75858;SDS011;64504;51.308;8.620;2023-05-10T05:10:40;1.95;;;1.40;;
75858;SDS011;64504;51.308;8.620;2023-05-10T05:13:05;1.48;;;1.17;;
75858;SDS011;64504;51.308;8.620;2023-05-10T05:15:31;1.50;;;1.40;;
75858;SDS011;64504;51.308;8.620;2023-05-10T05:17:57;1.65;;;1.55;;
75858;SDS011;64504;51.308;8.620;2023-05-10T05:20:22;4.57;;;1.23;;
75858;SDS011;64504;51.308;8.620;2023-05-10T05:22:48;2.40;;;1.63;;
75858;SDS011;64504;51.308;8.620;2023-05-10T05:25:14;1.35;;;1.25;;
75858;SDS011;64504;51.308;8.620;2023-05-10T05:27:40;1.00;;;1.00;;
75858;SDS011;64504;51.308;8.620;2023-05-10T05:30:06;0.90;;;0.90;;
75858;SDS011;64504;51.308;8.620;2023-05-10T05:32:32;0.73;;;0.70;;
75858;SDS011;64504;51.308;8.620;2023-05-10T05:34:58;1.38;;;1.27;;
75858;SDS011;64504;51.308;8.620;2023-05-10T05:37:25;2.08;;;1.95;;
75858;SDS011;64504;51.308;8.620;2023-05-10T05:39:50;0.77;;;0.77;;
75858;SDS011;64504;51.308;8.620;2023-05-10T05:42:16;1.08;;;0.95;;
75858;SDS011;64504;51.308;8.620;2023-05-10T05:44:43;3.15;;;1.70;;
75858;SDS011;64504;51.308;8.620;2023-05-10T05:47:09;2.47;;;1.77;;
75858;SDS011;64504;51.308;8.620;2023-05-10T05:49:35;2.38;;;1.13;;
75858;SDS011;64504;51.308;8.620;2023-05-10T05:52:01;1.85;;;1.27;;
75858;SDS011;64504;51.308;8.620;2023-05-10T05:54:28;1.48;;;0.98;;
75858;SDS011;64504;51.308;8.620;2023-05-10T05:56:55;0.93;;;0.77;;
75858;SDS011;64504;51.308;8.620;2023-05-10T05:59:21;1.65;;;1.30;;
75858;SDS011;64504;51.308;8.620;2023-05-10T06:01:47;4.05;;;0.98;;
75858;SDS011;64504;51.308;8.620;2023-05-10T06:04:12;0.65;;;0.65;;
75858;SDS011;64504;51.308;8.620;2023-05-10T06:06:39;1.10;;;0.95;;
75858;SDS011;64504;51.308;8.620;2023-05-10T06:09:04;4.85;;;1.25;;
75858;SDS011;64504;51.308;8.620;2023-05-10T06:11:30;1.52;;;1.20;;
75858;SDS011;64504;51.308;8.620;2023-05-10T06:13:57;0.57;;;0.57;;
75858;SDS011;64504;51.308;8.620;2023-05-10T06:16:23;0.68;;;0.68;;
75858;SDS011;64504;51.308;8.620;2023-05-10T06:18:48;1.40;;;1.08;;
75858;SDS011;64504;51.308;8.620;2023-05-10T06:21:14;1.40;;;1.30;;
75858;SDS011;64504;51.308;8.620;2023-05-10T06:23:40;1.50;;;1.33;;
75858;SDS011;64504;51.308;8.620;2023-05-10T06:26:05;9.27;;;1.17;;
75858;SDS011;64504;51.308;8.620;2023-05-10T06:28:31;6.90;;;0.90;;
75858;SDS011;64504;51.308;8.620;2023-05-10T06:30:58;2.30;;;1.70;;
75858;SDS011;64504;51.308;8.620;2023-05-10T06:33:30;2.03;;;1.20;;
75858;SDS011;64504;51.308;8.620;2023-05-10T06:35:59;1.80;;;0.90;;
75858;SDS011;64504;51.308;8.620;2023-05-10T06:38:25;1.30;;;1.00;;
75858;SDS011;64504;51.308;8.620;2023-05-10T06:40:51;1.00;;;1.00;;
75858;SDS011;64504;51.308;8.620;2023-05-10T06:43:16;2.92;;;1.65;;
75858;SDS011;64504;51.308;8.620;2023-05-10T06:45:43;1.77;;;1.67;;
75858;SDS011;64504;51.308;8.620;2023-05-10T06:48:08;0.60;;;0.60;;
75858;SDS011;64504;51.308;8.620;2023-05-10T06:50:34;1.25;;;1.15;;
75858;SDS011;64504;51.308;8.620;2023-05-10T06:53:01;0.95;;;0.90;;
75858;SDS011;64504;51.308;8.620;2023-05-10T06:55:30;0.95;;;0.90;;
75858;SDS011;64504;51.308;8.620;2023-05-10T06:58:00;1.52;;;1.10;;
75858;SDS011;64504;51.308;8.620;2023-05-10T07:00:26;1.50;;;1.40;;
75858;SDS011;64504;51.308;8.620;2023-05-10T07:02:52;1.10;;;1.10;;
75858;SDS011;64504;51.308;8.620;2023-05-10T07:05:18;1.60;;;1.50;;
75858;SDS011;64504;51.308;8.620;2023-05-10T07:07:43;2.08;;;1.88;;
75858;SDS011;64504;51.308;8.620;2023-05-10T07:10:09;2.63;;;1.98;;
75858;SDS011;64504;51.308;8.620;2023-05-10T07:12:34;3.03;;;1.98;;
75858;SDS011;64504;51.308;8.620;2023-05-10T07:15:00;6.40;;;2.22;;
75858;SDS011;64504;51.308;8.620;2023-05-10T07:17:25;2.17;;;1.98;;
75858;SDS011;64504;51.308;8.620;2023-05-10T07:19:51;3.25;;;2.80;;
75858;SDS011;64504;51.308;8.620;2023-05-10T07:22:16;4.00;;;2.10;;
75858;SDS011;64504;51.308;8.620;2023-05-10T07:24:42;4.80;;;2.72;;
75858;SDS011;64504;51.308;8.620;2023-05-10T07:27:08;6.53;;;2.53;;
75858;SDS011;64504;51.308;8.620;2023-05-10T07:29:34;3.03;;;2.83;;
75858;SDS011;64504;51.308;8.620;2023-05-10T07:32:00;1.98;;;1.88;;
75858;SDS011;64504;51.308;8.620;2023-05-10T07:34:25;2.30;;;2.10;;
75858;SDS011;64504;51.308;8.620;2023-05-10T07:36:52;1.50;;;1.38;;
75858;SDS011;64504;51.308;8.620;2023-05-10T07:39:17;3.10;;;2.80;;
75858;SDS011;64504;51.308;8.620;2023-05-10T07:41:43;5.40;;;3.00;;
75858;SDS011;64504;51.308;8.620;2023-05-10T07:44:08;3.00;;;2.70;;
75858;SDS011;64504;51.308;8.620;2023-05-10T07:46:34;2.22;;;1.95;;
75858;SDS011;64504;51.308;8.620;2023-05-10T07:48:59;6.50;;;3.22;;
75858;SDS011;64504;51.308;8.620;2023-05-10T07:51:24;4.97;;;3.83;;
75858;SDS011;64504;51.308;8.620;2023-05-10T07:53:50;4.20;;;3.72;;
75858;SDS011;64504;51.308;8.620;2023-05-10T07:59:21;7.80;;;5.38;;
75858;SDS011;64504;51.308;8.620;2023-05-10T08:01:46;4.60;;;4.22;;
75858;SDS011;64504;51.308;8.620;2023-05-10T08:04:12;4.65;;;3.60;;
75858;SDS011;64504;51.308;8.620;2023-05-10T08:06:37;4.68;;;4.07;;
75858;SDS011;64504;51.308;8.620;2023-05-10T08:09:04;9.13;;;5.25;;
75858;SDS011;64504;51.308;8.620;2023-05-10T08:11:29;6.85;;;4.95;;
75858;SDS011;64504;51.308;8.620;2023-05-10T08:13:55;14.95;;;5.53;;
75858;SDS011;64504;51.308;8.620;2023-05-10T08:16:20;5.47;;;4.10;;
75858;SDS011;64504;51.308;8.620;2023-05-10T08:18:46;6.60;;;3.83;;
75858;SDS011;64504;51.308;8.620;2023-05-10T08:21:12;9.20;;;4.60;;
75858;SDS011;64504;51.308;8.620;2023-05-10T08:23:38;6.38;;;4.15;;
75858;SDS011;64504;51.308;8.620;2023-05-10T08:26:04;5.90;;;4.30;;
75858;SDS011;64504;51.308;8.620;2023-05-10T08:28:30;5.53;;;3.47;;
75858;SDS011;64504;51.308;8.620;2023-05-10T08:30:55;6.57;;;5.93;;
75858;SDS011;64504;51.308;8.620;2023-05-10T08:33:21;7.82;;;4.32;;
75858;SDS011;64504;51.308;8.620;2023-05-10T08:35:46;6.57;;;5.18;;
75858;SDS011;64504;51.308;8.620;2023-05-10T08:38:13;7.45;;;6.22;;
75858;SDS011;64504;51.308;8.620;2023-05-10T08:40:42;5.43;;;4.35;;
75858;SDS011;64504;51.308;8.620;2023-05-10T08:43:12;8.70;;;4.70;;
75858;SDS011;64504;51.308;8.620;2023-05-10T08:45:40;6.78;;;4.93;;
75858;SDS011;64504;51.308;8.620;2023-05-10T08:48:08;5.20;;;4.70;;
75858;SDS011;64504;51.308;8.620;2023-05-10T08:50:36;5.45;;;4.95;;
75858;SDS011;64504;51.308;8.620;2023-05-10T08:53:04;7.15;;;5.22;;
75858;SDS011;64504;51.308;8.620;2023-05-10T08:55:31;4.82;;;3.53;;
75858;SDS011;64504;51.308;8.620;2023-05-10T08:57:58;8.02;;;4.07;;
75858;SDS011;64504;51.308;8.620;2023-05-10T09:00:25;8.32;;;5.28;;
75858;SDS011;64504;51.308;8.620;2023-05-10T09:02:51;6.82;;;4.45;;
75858;SDS011;64504;51.308;8.620;2023-05-10T09:05:17;5.25;;;3.60;;
75858;SDS011;64504;51.308;8.620;2023-05-10T09:07:42;7.55;;;4.55;;
75858;SDS011;64504;51.308;8.620;2023-05-10T09:10:08;7.63;;;4.82;;
75858;SDS011;64504;51.308;8.620;2023-05-10T09:12:34;5.85;;;3.90;;
75858;SDS011;64504;51.308;8.620;2023-05-10T09:15:00;4.45;;;4.05;;
75858;SDS011;64504;51.308;8.620;2023-05-10T09:17:26;5.78;;;3.97;;
75858;SDS011;64504;51.308;8.620;2023-05-10T09:19:59;2.72;;;2.53;;
75858;SDS011;64504;51.308;8.620;2023-05-10T09:22:26;5.35;;;4.03;;
75858;SDS011;64504;51.308;8.620;2023-05-10T09:25:07;6.63;;;4.22;;
75858;SDS011;64504;51.308;8.620;2023-05-10T09:27:43;5.68;;;3.45;;
75858;SDS011;64504;51.308;8.620;2023-05-10T09:30:10;4.28;;;3.63;;
75858;SDS011;64504;51.308;8.620;2023-05-10T09:32:42;8.13;;;4.43;;
75858;SDS011;64504;51.308;8.620;2023-05-10T09:35:15;11.63;;;3.63;;
75858;SDS011;64504;51.308;8.620;2023-05-10T09:37:42;18.50;;;5.00;;
75858;SDS011;64504;51.308;8.620;2023-05-10T09:40:12;3.40;;;3.10;;
75858;SDS011;64504;51.308;8.620;2023-05-10T09:42:41;4.28;;;3.80;;
75858;SDS011;64504;51.308;8.620;2023-05-10T09:45:07;5.07;;;3.80;;
75858;SDS011;64504;51.308;8.620;2023-05-10T09:47:34;5.80;;;3.78;;
75858;SDS011;64504;51.308;8.620;2023-05-10T09:50:00;7.95;;;3.30;;
75858;SDS011;64504;51.308;8.620;2023-05-10T09:52:30;3.38;;;3.08;;
75858;SDS011;64504;51.308;8.620;2023-05-10T09:54:57;4.20;;;3.33;;
75858;SDS011;64504;51.308;8.620;2023-05-10T09:57:23;4.93;;;3.53;;
75858;SDS011;64504;51.308;8.620;2023-05-10T09:59:49;2.72;;;2.45;;
75858;SDS011;64504;51.308;8.620;2023-05-10T10:02:15;5.43;;;3.13;;
75858;SDS011;64504;51.308;8.620;2023-05-10T10:04:43;3.50;;;3.17;;
75858;SDS011;64504;51.308;8.620;2023-05-10T10:07:08;3.88;;;3.28;;
75858;SDS011;64504;51.308;8.620;2023-05-10T10:09:34;5.75;;;3.83;;
75858;SDS011;64504;51.308;8.620;2023-05-10T10:12:01;7.03;;;4.93;;
75858;SDS011;64504;51.308;8.620;2023-05-10T10:14:27;6.40;;;3.97;;
75858;SDS011;64504;51.308;8.620;2023-05-10T10:16:53;6.35;;;4.05;;
75858;SDS011;64504;51.308;8.620;2023-05-10T10:19:19;6.25;;;3.55;;
75858;SDS011;64504;51.308;8.620;2023-05-10T10:21:49;3.85;;;3.50;;
75858;SDS011;64504;51.308;8.620;2023-05-10T10:24:15;4.05;;;2.63;;
75858;SDS011;64504;51.308;8.620;2023-05-10T10:26:40;6.72;;;3.33;;
75858;SDS011;64504;51.308;8.620;2023-05-10T10:32:23;8.32;;;3.25;;
75858;SDS011;64504;51.308;8.620;2023-05-10T10:34:54;4.35;;;3.08;;
75858;SDS011;64504;51.308;8.620;2023-05-10T10:37:21;7.78;;;3.55;;
75858;SDS011;64504;51.308;8.620;2023-05-10T10:39:47;11.13;;;2.63;;
75858;SDS011;64504;51.308;8.620;2023-05-10T10:42:13;6.57;;;3.38;;
75858;SDS011;64504;51.308;8.620;2023-05-10T10:44:39;5.30;;;3.17;;
75858;SDS011;64504;51.308;8.620;2023-05-10T10:52:36;7.00;;;3.50;;
75858;SDS011;64504;51.308;8.620;2023-05-10T10:55:09;3.90;;;2.53;;
75858;SDS011;64504;51.308;8.620;2023-05-10T10:57:46;3.13;;;2.58;;
75858;SDS011;64504;51.308;8.620;2023-05-10T11:00:29;6.57;;;3.17;;
75858;SDS011;64504;51.308;8.620;2023-05-10T11:03:09;3.53;;;2.58;;
75858;SDS011;64504;51.308;8.620;2023-05-10T11:08:10;2.35;;;1.92;;
75858;SDS011;64504;51.308;8.620;2023-05-10T11:10:36;5.22;;;2.88;;
75858;SDS011;64504;51.308;8.620;2023-05-10T11:13:02;1.95;;;1.75;;
75858;SDS011;64504;51.308;8.620;2023-05-10T11:15:33;4.45;;;3.10;;
75858;SDS011;64504;51.308;8.620;2023-05-10T11:18:20;9.73;;;2.53;;
75858;SDS011;64504;51.308;8.620;2023-05-10T11:20:52;4.80;;;3.08;;
75858;SDS011;64504;51.308;8.620;2023-05-10T11:23:21;13.40;;;3.53;;
75858;SDS011;64504;51.308;8.620;2023-05-10T11:25:47;2.83;;;2.55;;
75858;SDS011;64504;51.308;8.620;2023-05-10T11:28:14;4.68;;;2.95;;
75858;SDS011;64504;51.308;8.620;2023-05-10T11:30:40;2.38;;;2.17;;
75858;SDS011;64504;51.308;8.620;2023-05-10T11:33:06;3.90;;;2.58;;
75858;SDS011;64504;51.308;8.620;2023-05-10T11:35:39;1.90;;;1.75;;
75858;SDS011;64504;51.308;8.620;2023-05-10T11:38:07;2.25;;;1.95;;
75858;SDS011;64504;51.308;8.620;2023-05-10T11:40:33;4.13;;;2.22;;
75858;SDS011;64504;51.308;8.620;2023-05-10T11:42:59;2.13;;;1.95;;
75858;SDS011;64504;51.308;8.620;2023-05-10T11:45:24;2.60;;;2.40;;
75858;SDS011;64504;51.308;8.620;2023-05-10T11:47:51;2.50;;;2.30;;
75858;SDS011;64504;51.308;8.620;2023-05-10T11:50:17;2.60;;;1.45;;
75858;SDS011;64504;51.308;8.620;2023-05-10T11:52:44;2.03;;;1.75;;
75858;SDS011;64504;51.308;8.620;2023-05-10T11:55:10;1.75;;;1.65;;
75858;SDS011;64504;51.308;8.620;2023-05-10T11:57:36;3.45;;;2.08;;
75858;SDS011;64504;51.308;8.620;2023-05-10T12:00:03;1.65;;;1.50;;
75858;SDS011;64504;51.308;8.620;2023-05-10T12:02:29;5.95;;;2.13;;
75858;SDS011;64504;51.308;8.620;2023-05-10T12:04:55;2.35;;;2.15;;
75858;SDS011;64504;51.308;8.620;2023-05-10T12:07:21;5.10;;;3.30;;
75858;SDS011;64504;51.308;8.620;2023-05-10T12:12:51;2.28;;;2.08;;
75858;SDS011;64504;51.308;8.620;2023-05-10T12:15:21;11.38;;;3.63;;
75858;SDS011;64504;51.308;8.620;2023-05-10T12:17:47;5.97;;;4.13;;
75858;SDS011;64504;51.308;8.620;2023-05-10T12:20:15;7.03;;;3.08;;
75858;SDS011;64504;51.308;8.620;2023-05-10T12:22:51;3.80;;;2.97;;
75858;SDS011;64504;51.308;8.620;2023-05-10T12:25:19;3.80;;;3.28;;
75858;SDS011;64504;51.308;8.620;2023-05-10T12:27:52;4.15;;;3.60;;
75858;SDS011;64504;51.308;8.620;2023-05-10T12:30:21;7.57;;;4.70;;
75858;SDS011;64504;51.308;8.620;2023-05-10T12:32:48;8.13;;;4.38;;
75858;SDS011;64504;51.308;8.620;2023-05-10T12:35:14;7.45;;;3.92;;
75858;SDS011;64504;51.308;8.620;2023-05-10T12:37:41;7.55;;;4.20;;
75858;SDS011;64504;51.308;8.620;2023-05-10T12:40:08;6.28;;;3.65;;
75858;SDS011;64504;51.308;8.620;2023-05-10T12:42:35;5.38;;;4.50;;
75858;SDS011;64504;51.308;8.620;2023-05-10T12:45:02;6.32;;;4.00;;
75858;SDS011;64504;51.308;8.620;2023-05-10T12:47:29;4.85;;;4.35;;
75858;SDS011;64504;51.308;8.620;2023-05-10T12:49:55;8.27;;;3.95;;
75858;SDS011;64504;51.308;8.620;2023-05-10T12:52:20;4.93;;;3.63;;
75858;SDS011;64504;51.308;8.620;2023-05-10T12:54:46;9.43;;;3.63;;
75858;SDS011;64504;51.308;8.620;2023-05-10T12:57:12;5.13;;;3.60;;
75858;SDS011;64504;51.308;8.620;2023-05-10T12:59:38;15.55;;;3.53;;
75858;SDS011;64504;51.308;8.620;2023-05-10T13:02:03;2.45;;;2.25;;
75858;SDS011;64504;51.308;8.620;2023-05-10T13:04:30;1.70;;;1.60;;
75858;SDS011;64504;51.308;8.620;2023-05-10T13:06:56;8.13;;;3.33;;
75858;SDS011;64504;51.308;8.620;2023-05-10T13:09:24;2.55;;;2.35;;
75858;SDS011;64504;51.308;8.620;2023-05-10T13:11:50;4.32;;;3.08;;
75858;SDS011;64504;51.308;8.620;2023-05-10T13:14:16;2.42;;;1.77;;
75858;SDS011;64504;51.308;8.620;2023-05-10T13:16:43;2.55;;;2.30;;
75858;SDS011;64504;51.308;8.620;2023-05-10T13:19:10;2.90;;;2.33;;
75858;SDS011;64504;51.308;8.620;2023-05-10T13:21:36;3.33;;;2.53;;
75858;SDS011;64504;51.308;8.620;2023-05-10T13:24:02;3.15;;;2.53;;
75858;SDS011;64504;51.308;8.620;2023-05-10T13:26:27;2.95;;;2.65;;
75858;SDS011;64504;51.308;8.620;2023-05-10T13:28:53;4.28;;;3.25;;
75858;SDS011;64504;51.308;8.620;2023-05-10T13:31:20;5.50;;;2.85;;
75858;SDS011;64504;51.308;8.620;2023-05-10T13:33:46;5.78;;;3.72;;
75858;SDS011;64504;51.308;8.620;2023-05-10T13:36:12;6.57;;;3.13;;
75858;SDS011;64504;51.308;8.620;2023-05-10T13:38:37;7.22;;;3.53;;
75858;SDS011;64504;51.308;8.620;2023-05-10T13:41:06;4.05;;;3.60;;
75858;SDS011;64504;51.308;8.620;2023-05-10T13:43:31;21.52;;;3.70;;
75858;SDS011;64504;51.308;8.620;2023-05-10T13:45:57;13.30;;;3.15;;
75858;SDS011;64504;51.308;8.620;2023-05-10T13:48:24;3.45;;;2.65;;
75858;SDS011;64504;51.308;8.620;2023-05-10T13:50:52;8.45;;;3.25;;
75858;SDS011;64504;51.308;8.620;2023-05-10T13:53:17;11.23;;;3.45;;
75858;SDS011;64504;51.308;8.620;2023-05-10T13:55:45;5.13;;;2.58;;
75858;SDS011;64504;51.308;8.620;2023-05-10T13:58:12;5.50;;;3.47;;
75858;SDS011;64504;51.308;8.620;2023-05-10T14:00:37;8.00;;;3.92;;
75858;SDS011;64504;51.308;8.620;2023-05-10T14:03:03;3.00;;;2.38;;
75858;SDS011;64504;51.308;8.620;2023-05-10T14:05:30;5.82;;;3.03;;
75858;SDS011;64504;51.308;8.620;2023-05-10T14:07:56;3.70;;;2.85;;
75858;SDS011;64504;51.308;8.620;2023-05-10T14:10:22;4.00;;;3.65;;
75858;SDS011;64504;51.308;8.620;2023-05-10T14:12:47;3.78;;;2.70;;
75858;SDS011;64504;51.308;8.620;2023-05-10T14:15:13;4.90;;;2.97;;
75858;SDS011;64504;51.308;8.620;2023-05-10T14:17:38;4.18;;;2.63;;
75858;SDS011;64504;51.308;8.620;2023-05-10T14:20:04;3.45;;;3.17;;
75858;SDS011;64504;51.308;8.620;2023-05-10T14:22:30;3.97;;;3.05;;
75858;SDS011;64504;51.308;8.620;2023-05-10T14:24:55;4.47;;;3.63;;
75858;SDS011;64504;51.308;8.620;2023-05-10T14:27:21;6.68;;;3.60;;
75858;SDS011;64504;51.308;8.620;2023-05-10T14:29:47;11.00;;;3.67;;
75858;SDS011;64504;51.308;8.620;2023-05-10T14:32:12;3.67;;;3.25;;
75858;SDS011;64504;51.308;8.620;2023-05-10T14:34:38;3.67;;;3.33;;
75858;SDS011;64504;51.308;8.620;2023-05-10T14:37:04;5.10;;;3.80;;
75858;SDS011;64504;51.308;8.620;2023-05-10T14:39:29;3.42;;;2.55;;
75858;SDS011;64504;51.308;8.620;2023-05-10T14:41:55;4.20;;;3.80;;
75858;SDS011;64504;51.308;8.620;2023-05-10T14:44:21;3.38;;;3.08;;
75858;SDS011;64504;51.308;8.620;2023-05-10T14:46:46;5.30;;;4.35;;
75858;SDS011;64504;51.308;8.620;2023-05-10T14:49:13;5.43;;;3.75;;
75858;SDS011;64504;51.308;8.620;2023-05-10T14:51:38;5.32;;;3.72;;
75858;SDS011;64504;51.308;8.620;2023-05-10T14:54:04;6.63;;;3.33;;
75858;SDS011;64504;51.308;8.620;2023-05-10T14:56:29;5.38;;;4.32;;
75858;SDS011;64504;51.308;8.620;2023-05-10T14:58:55;7.07;;;4.15;;
75858;SDS011;64504;51.308;8.620;2023-05-10T15:01:20;3.88;;;3.55;;
75858;SDS011;64504;51.308;8.620;2023-05-10T15:03:46;4.93;;;4.43;;
75858;SDS011;64504;51.308;8.620;2023-05-10T15:06:13;7.60;;;4.80;;
75858;SDS011;64504;51.308;8.620;2023-05-10T15:08:41;10.45;;;5.25;;
75858;SDS011;64504;51.308;8.620;2023-05-10T15:11:07;17.05;;;12.18;;
75858;SDS011;64504;51.308;8.620;2023-05-10T15:13:32;12.20;;;6.65;;
75858;SDS011;64504;51.308;8.620;2023-05-10T15:15:58;5.47;;;4.25;;
75858;SDS011;64504;51.308;8.620;2023-05-10T15:18:23;7.20;;;4.63;;
75858;SDS011;64504;51.308;8.620;2023-05-10T15:20:49;9.23;;;4.57;;
75858;SDS011;64504;51.308;8.620;2023-05-10T15:23:15;8.52;;;5.78;;
75858;SDS011;64504;51.308;8.620;2023-05-10T15:25:41;10.07;;;6.07;;
75858;SDS011;64504;51.308;8.620;2023-05-10T15:28:07;4.70;;;4.20;;